sensor_id;sensor_type;location;lat;lon;timestamp;P1;durP1;ratioP1;P2;durP2;ratioP2
13252;SDS011;6693;54.370;10.132;2023-04-12T00:00:58;14.65;;;3.45;;
13252;SDS011;6693;54.370;10.132;2023-04-12T00:02:01;14.27;;;3.38;;
13252;SDS011;6693;54.370;10.132;2023-04-12T00:03:04;9.77;;;3.05;;
13252;SDS011;6693;54.370;10.132;2023-04-12T00:04:07;16.00;;;3.65;;
13252;SDS011;6693;54.370;10.132;2023-04-12T00:05:11;11.75;;;2.65;;
13252;SDS011;6693;54.370;10.132;2023-04-12T00:06:15;12.82;;;3.60;;
13252;SDS011;6693;54.370;10.132;2023-04-12T00:07:16;13.45;;;3.45;;
13252;SDS011;6693;54.370;10.132;2023-04-12T00:08:20;15.30;;;3.90;;
13252;SDS011;6693;54.370;10.132;2023-04-12T00:09:25;12.85;;;3.55;;
13252;SDS011;6693;54.370;10.132;2023-04-12T00:10:29;13.05;;;4.93;;
13252;SDS011;6693;54.370;10.132;2023-04-12T00:11:33;13.35;;;4.00;;
13252;SDS011;6693;54.370;10.132;2023-04-12T00:12:34;12.73;;;4.60;;
13252;SDS011;6693;54.370;10.132;2023-04-12T00:13:39;14.07;;;4.32;;
13252;SDS011;6693;54.370;10.132;2023-04-12T00:14:40;15.25;;;4.50;;
13252;SDS011;6693;54.370;10.132;2023-04-12T00:15:43;14.05;;;5.15;;
13252;SDS011;6693;54.370;10.132;2023-04-12T00:16:44;11.55;;;4.38;;
13252;SDS011;6693;54.370;10.132;2023-04-12T00:17:47;14.30;;;4.60;;
13252;SDS011;6693;54.370;10.132;2023-04-12T00:18:47;13.45;;;4.45;;
13252;SDS011;6693;54.370;10.132;2023-04-12T00:19:53;13.63;;;3.90;;
13252;SDS011;6693;54.370;10.132;2023-04-12T00:20:56;13.20;;;3.75;;
13252;SDS011;6693;54.370;10.132;2023-04-12T00:21:59;11.85;;;3.97;;
13252;SDS011;6693;54.370;10.132;2023-04-12T00:23:00;13.10;;;3.80;;
13252;SDS011;6693;54.370;10.132;2023-04-12T00:24:03;12.07;;;3.67;;
13252;SDS011;6693;54.370;10.132;2023-04-12T00:25:04;12.70;;;3.75;;
13252;SDS011;6693;54.370;10.132;2023-04-12T00:26:08;12.07;;;3.30;;
13252;SDS011;6693;54.370;10.132;2023-04-12T00:27:08;12.38;;;3.65;;
13252;SDS011;6693;54.370;10.132;2023-04-12T00:28:12;14.90;;;4.28;;
13252;SDS011;6693;54.370;10.132;2023-04-12T00:29:15;11.68;;;3.58;;
13252;SDS011;6693;54.370;10.132;2023-04-12T00:30:18;13.57;;;3.90;;
13252;SDS011;6693;54.370;10.132;2023-04-12T00:31:18;11.90;;;3.55;;
13252;SDS011;6693;54.370;10.132;2023-04-12T00:32:22;12.32;;;3.47;;
13252;SDS011;6693;54.370;10.132;2023-04-12T00:33:22;14.55;;;3.47;;
13252;SDS011;6693;54.370;10.132;2023-04-12T00:34:26;12.02;;;3.92;;
13252;SDS011;6693;54.370;10.132;2023-04-12T00:35:27;11.77;;;3.88;;
13252;SDS011;6693;54.370;10.132;2023-04-12T00:36:32;11.32;;;3.30;;
13252;SDS011;6693;54.370;10.132;2023-04-12T00:37:33;13.00;;;3.50;;
13252;SDS011;6693;54.370;10.132;2023-04-12T00:38:38;13.45;;;4.10;;
13252;SDS011;6693;54.370;10.132;2023-04-12T00:39:38;17.65;;;2.60;;
13252;SDS011;6693;54.370;10.132;2023-04-12T00:40:41;11.55;;;3.33;;
13252;SDS011;6693;54.370;10.132;2023-04-12T00:41:42;15.68;;;3.60;;
13252;SDS011;6693;54.370;10.132;2023-04-12T00:42:45;12.90;;;3.83;;
13252;SDS011;6693;54.370;10.132;2023-04-12T00:43:46;15.18;;;3.72;;
13252;SDS011;6693;54.370;10.132;2023-04-12T00:44:49;14.63;;;3.78;;
13252;SDS011;6693;54.370;10.132;2023-04-12T00:45:50;13.68;;;3.92;;
13252;SDS011;6693;54.370;10.132;2023-04-12T00:46:53;12.98;;;3.90;;
13252;SDS011;6693;54.370;10.132;2023-04-12T00:47:54;10.52;;;4.10;;
13252;SDS011;6693;54.370;10.132;2023-04-12T00:48:57;12.68;;;3.85;;
13252;SDS011;6693;54.370;10.132;2023-04-12T00:49:59;8.55;;;2.55;;
13252;SDS011;6693;54.370;10.132;2023-04-12T00:51:03;12.73;;;3.90;;
13252;SDS011;6693;54.370;10.132;2023-04-12T00:52:09;11.85;;;3.08;;
13252;SDS011;6693;54.370;10.132;2023-04-12T00:53:14;14.57;;;3.35;;
13252;SDS011;6693;54.370;10.132;2023-04-12T00:54:16;13.65;;;4.00;;
13252;SDS011;6693;54.370;10.132;2023-04-12T00:55:21;15.27;;;4.45;;
13252;SDS011;6693;54.370;10.132;2023-04-12T00:56:23;14.10;;;3.63;;
13252;SDS011;6693;54.370;10.132;2023-04-12T00:57:27;11.95;;;3.67;;
13252;SDS011;6693;54.370;10.132;2023-04-12T00:58:30;12.63;;;3.40;;
13252;SDS011;6693;54.370;10.132;2023-04-12T00:59:34;14.60;;;3.28;;
13252;SDS011;6693;54.370;10.132;2023-04-12T01:00:34;9.95;;;3.33;;
13252;SDS011;6693;54.370;10.132;2023-04-12T01:01:37;11.25;;;2.85;;
13252;SDS011;6693;54.370;10.132;2023-04-12T01:02:40;14.30;;;4.00;;
13252;SDS011;6693;54.370;10.132;2023-04-12T01:03:46;11.70;;;4.35;;
13252;SDS011;6693;54.370;10.132;2023-04-12T01:04:47;13.70;;;4.88;;
13252;SDS011;6693;54.370;10.132;2023-04-12T01:05:55;15.85;;;3.78;;
13252;SDS011;6693;54.370;10.132;2023-04-12T01:07:11;12.23;;;3.45;;
13252;SDS011;6693;54.370;10.132;2023-04-12T01:08:18;11.13;;;3.70;;
13252;SDS011;6693;54.370;10.132;2023-04-12T01:09:26;13.30;;;3.83;;
13252;SDS011;6693;54.370;10.132;2023-04-12T01:10:35;10.30;;;2.72;;
13252;SDS011;6693;54.370;10.132;2023-04-12T01:11:43;12.35;;;3.53;;
13252;SDS011;6693;54.370;10.132;2023-04-12T01:12:51;11.90;;;3.90;;
13252;SDS011;6693;54.370;10.132;2023-04-12T01:13:57;9.80;;;3.25;;
13252;SDS011;6693;54.370;10.132;2023-04-12T01:15:03;14.40;;;4.07;;
13252;SDS011;6693;54.370;10.132;2023-04-12T01:16:06;12.05;;;3.58;;
13252;SDS011;6693;54.370;10.132;2023-04-12T01:17:12;17.70;;;4.43;;
13252;SDS011;6693;54.370;10.132;2023-04-12T01:18:20;14.27;;;4.18;;
13252;SDS011;6693;54.370;10.132;2023-04-12T01:19:32;16.55;;;4.70;;
13252;SDS011;6693;54.370;10.132;2023-04-12T01:20:47;10.18;;;3.90;;
13252;SDS011;6693;54.370;10.132;2023-04-12T01:21:59;9.20;;;3.53;;
13252;SDS011;6693;54.370;10.132;2023-04-12T01:23:21;11.45;;;4.10;;
13252;SDS011;6693;54.370;10.132;2023-04-12T01:24:36;11.07;;;3.92;;
13252;SDS011;6693;54.370;10.132;2023-04-12T01:25:50;13.70;;;3.83;;
13252;SDS011;6693;54.370;10.132;2023-04-12T01:27:00;12.77;;;4.13;;
13252;SDS011;6693;54.370;10.132;2023-04-12T01:28:05;12.20;;;3.10;;
13252;SDS011;6693;54.370;10.132;2023-04-12T01:29:12;11.18;;;2.80;;
13252;SDS011;6693;54.370;10.132;2023-04-12T01:30:15;10.95;;;3.63;;
13252;SDS011;6693;54.370;10.132;2023-04-12T01:31:19;9.95;;;1.88;;
13252;SDS011;6693;54.370;10.132;2023-04-12T01:32:20;12.40;;;2.65;;
13252;SDS011;6693;54.370;10.132;2023-04-12T01:33:24;10.13;;;2.67;;
13252;SDS011;6693;54.370;10.132;2023-04-12T01:34:31;14.05;;;3.63;;
13252;SDS011;6693;54.370;10.132;2023-04-12T01:35:35;9.88;;;3.67;;
13252;SDS011;6693;54.370;10.132;2023-04-12T01:36:36;11.13;;;4.22;;
13252;SDS011;6693;54.370;10.132;2023-04-12T01:37:40;9.75;;;3.22;;
13252;SDS011;6693;54.370;10.132;2023-04-12T01:38:42;13.20;;;3.92;;
13252;SDS011;6693;54.370;10.132;2023-04-12T01:39:45;13.32;;;3.63;;
13252;SDS011;6693;54.370;10.132;2023-04-12T01:40:46;13.52;;;4.53;;
13252;SDS011;6693;54.370;10.132;2023-04-12T01:41:50;12.23;;;4.55;;
13252;SDS011;6693;54.370;10.132;2023-04-12T01:42:50;12.50;;;3.65;;
13252;SDS011;6693;54.370;10.132;2023-04-12T01:43:56;18.17;;;4.63;;
13252;SDS011;6693;54.370;10.132;2023-04-12T01:44:57;11.55;;;3.35;;
13252;SDS011;6693;54.370;10.132;2023-04-12T01:46:00;20.38;;;4.18;;
13252;SDS011;6693;54.370;10.132;2023-04-12T01:47:01;16.45;;;4.65;;
13252;SDS011;6693;54.370;10.132;2023-04-12T01:48:05;10.25;;;3.20;;
13252;SDS011;6693;54.370;10.132;2023-04-12T01:49:07;14.25;;;4.03;;
13252;SDS011;6693;54.370;10.132;2023-04-12T01:50:12;9.23;;;3.22;;
13252;SDS011;6693;54.370;10.132;2023-04-12T01:51:17;11.32;;;3.70;;
13252;SDS011;6693;54.370;10.132;2023-04-12T01:52:25;13.45;;;4.38;;
13252;SDS011;6693;54.370;10.132;2023-04-12T01:53:31;17.55;;;4.72;;
13252;SDS011;6693;54.370;10.132;2023-04-12T01:54:40;13.77;;;4.75;;
13252;SDS011;6693;54.370;10.132;2023-04-12T01:55:42;12.27;;;5.40;;
13252;SDS011;6693;54.370;10.132;2023-04-12T01:56:49;14.38;;;4.55;;
13252;SDS011;6693;54.370;10.132;2023-04-12T01:57:50;10.20;;;3.85;;
13252;SDS011;6693;54.370;10.132;2023-04-12T01:59:00;14.02;;;4.75;;
13252;SDS011;6693;54.370;10.132;2023-04-12T02:00:02;13.43;;;5.03;;
13252;SDS011;6693;54.370;10.132;2023-04-12T02:01:07;7.03;;;2.67;;
13252;SDS011;6693;54.370;10.132;2023-04-12T02:02:08;11.98;;;4.25;;
13252;SDS011;6693;54.370;10.132;2023-04-12T02:03:12;14.00;;;5.32;;
13252;SDS011;6693;54.370;10.132;2023-04-12T02:04:13;13.35;;;5.43;;
13252;SDS011;6693;54.370;10.132;2023-04-12T02:05:17;10.48;;;4.10;;
13252;SDS011;6693;54.370;10.132;2023-04-12T02:06:18;12.88;;;4.65;;
13252;SDS011;6693;54.370;10.132;2023-04-12T02:07:22;12.98;;;4.22;;
13252;SDS011;6693;54.370;10.132;2023-04-12T02:08:23;13.70;;;4.55;;
13252;SDS011;6693;54.370;10.132;2023-04-12T02:09:26;13.07;;;4.13;;
13252;SDS011;6693;54.370;10.132;2023-04-12T02:10:27;13.00;;;5.13;;
13252;SDS011;6693;54.370;10.132;2023-04-12T02:11:31;15.77;;;5.20;;
13252;SDS011;6693;54.370;10.132;2023-04-12T02:12:31;14.13;;;4.72;;
13252;SDS011;6693;54.370;10.132;2023-04-12T02:13:34;12.10;;;4.60;;
13252;SDS011;6693;54.370;10.132;2023-04-12T02:14:38;12.68;;;4.65;;
13252;SDS011;6693;54.370;10.132;2023-04-12T02:15:41;15.75;;;4.68;;
13252;SDS011;6693;54.370;10.132;2023-04-12T02:16:43;12.52;;;4.47;;
13252;SDS011;6693;54.370;10.132;2023-04-12T02:17:46;14.68;;;4.95;;
13252;SDS011;6693;54.370;10.132;2023-04-12T02:18:47;17.10;;;5.07;;
13252;SDS011;6693;54.370;10.132;2023-04-12T02:19:50;13.27;;;5.68;;
13252;SDS011;6693;54.370;10.132;2023-04-12T02:20:51;16.92;;;4.93;;
13252;SDS011;6693;54.370;10.132;2023-04-12T02:21:54;12.50;;;5.15;;
13252;SDS011;6693;54.370;10.132;2023-04-12T02:22:55;14.32;;;6.25;;
13252;SDS011;6693;54.370;10.132;2023-04-12T02:23:59;11.93;;;5.28;;
13252;SDS011;6693;54.370;10.132;2023-04-12T02:25:00;10.55;;;4.65;;
13252;SDS011;6693;54.370;10.132;2023-04-12T02:26:05;15.93;;;4.90;;
13252;SDS011;6693;54.370;10.132;2023-04-12T02:27:06;14.05;;;5.22;;
13252;SDS011;6693;54.370;10.132;2023-04-12T02:28:10;17.73;;;5.63;;
13252;SDS011;6693;54.370;10.132;2023-04-12T02:29:10;14.95;;;5.80;;
13252;SDS011;6693;54.370;10.132;2023-04-12T02:30:16;13.43;;;6.45;;
13252;SDS011;6693;54.370;10.132;2023-04-12T02:31:17;14.82;;;5.43;;
13252;SDS011;6693;54.370;10.132;2023-04-12T02:32:21;16.33;;;6.10;;
13252;SDS011;6693;54.370;10.132;2023-04-12T02:33:21;13.40;;;4.68;;
13252;SDS011;6693;54.370;10.132;2023-04-12T02:34:27;16.77;;;4.55;;
13252;SDS011;6693;54.370;10.132;2023-04-12T02:35:33;12.80;;;4.32;;
13252;SDS011;6693;54.370;10.132;2023-04-12T02:36:36;13.57;;;5.05;;
13252;SDS011;6693;54.370;10.132;2023-04-12T02:37:37;10.18;;;3.83;;
13252;SDS011;6693;54.370;10.132;2023-04-12T02:38:42;14.20;;;4.93;;
13252;SDS011;6693;54.370;10.132;2023-04-12T02:39:43;13.05;;;4.78;;
13252;SDS011;6693;54.370;10.132;2023-04-12T02:40:47;14.63;;;4.50;;
13252;SDS011;6693;54.370;10.132;2023-04-12T02:41:47;14.00;;;4.75;;
13252;SDS011;6693;54.370;10.132;2023-04-12T02:42:50;11.60;;;3.90;;
13252;SDS011;6693;54.370;10.132;2023-04-12T02:43:51;10.18;;;3.38;;
13252;SDS011;6693;54.370;10.132;2023-04-12T02:44:54;15.18;;;4.55;;
13252;SDS011;6693;54.370;10.132;2023-04-12T02:45:57;12.10;;;3.55;;
13252;SDS011;6693;54.370;10.132;2023-04-12T02:47:01;15.02;;;4.95;;
13252;SDS011;6693;54.370;10.132;2023-04-12T02:48:01;14.00;;;4.53;;
13252;SDS011;6693;54.370;10.132;2023-04-12T02:49:05;12.70;;;5.15;;
13252;SDS011;6693;54.370;10.132;2023-04-12T02:50:06;12.98;;;4.05;;
13252;SDS011;6693;54.370;10.132;2023-04-12T02:51:10;11.35;;;3.47;;
13252;SDS011;6693;54.370;10.132;2023-04-12T02:52:10;10.63;;;3.65;;
13252;SDS011;6693;54.370;10.132;2023-04-12T02:53:14;10.30;;;3.15;;
13252;SDS011;6693;54.370;10.132;2023-04-12T02:54:15;11.38;;;3.72;;
13252;SDS011;6693;54.370;10.132;2023-04-12T02:55:18;10.98;;;4.18;;
13252;SDS011;6693;54.370;10.132;2023-04-12T02:56:18;10.15;;;3.53;;
13252;SDS011;6693;54.370;10.132;2023-04-12T02:57:23;9.20;;;3.38;;
13252;SDS011;6693;54.370;10.132;2023-04-12T02:58:24;13.52;;;5.38;;
13252;SDS011;6693;54.370;10.132;2023-04-12T02:59:27;11.73;;;4.75;;
13252;SDS011;6693;54.370;10.132;2023-04-12T03:00:28;9.65;;;3.72;;
13252;SDS011;6693;54.370;10.132;2023-04-12T03:01:33;10.43;;;4.35;;
13252;SDS011;6693;54.370;10.132;2023-04-12T03:02:34;11.45;;;4.13;;
13252;SDS011;6693;54.370;10.132;2023-04-12T03:03:37;13.85;;;5.28;;
13252;SDS011;6693;54.370;10.132;2023-04-12T03:04:38;13.23;;;4.75;;
13252;SDS011;6693;54.370;10.132;2023-04-12T03:05:45;10.57;;;4.10;;
13252;SDS011;6693;54.370;10.132;2023-04-12T03:06:49;17.27;;;4.15;;
13252;SDS011;6693;54.370;10.132;2023-04-12T03:07:51;11.50;;;3.47;;
13252;SDS011;6693;54.370;10.132;2023-04-12T03:08:54;12.13;;;3.75;;
13252;SDS011;6693;54.370;10.132;2023-04-12T03:10:59;12.82;;;3.80;;
13252;SDS011;6693;54.370;10.132;2023-04-12T03:12:00;17.13;;;5.35;;
13252;SDS011;6693;54.370;10.132;2023-04-12T03:13:04;15.05;;;4.93;;
13252;SDS011;6693;54.370;10.132;2023-04-12T03:14:04;13.07;;;4.43;;
13252;SDS011;6693;54.370;10.132;2023-04-12T03:15:08;12.77;;;4.60;;
13252;SDS011;6693;54.370;10.132;2023-04-12T03:17:25;10.48;;;4.95;;
13252;SDS011;6693;54.370;10.132;2023-04-12T03:18:25;11.75;;;5.60;;
13252;SDS011;6693;54.370;10.132;2023-04-12T03:19:28;14.75;;;5.18;;
13252;SDS011;6693;54.370;10.132;2023-04-12T03:20:32;9.65;;;4.15;;
13252;SDS011;6693;54.370;10.132;2023-04-12T03:21:35;12.13;;;5.75;;
13252;SDS011;6693;54.370;10.132;2023-04-12T03:22:36;15.15;;;5.63;;
13252;SDS011;6693;54.370;10.132;2023-04-12T03:23:39;12.60;;;4.97;;
13252;SDS011;6693;54.370;10.132;2023-04-12T03:24:40;12.52;;;4.55;;
13252;SDS011;6693;54.370;10.132;2023-04-12T03:25:43;19.02;;;7.32;;
13252;SDS011;6693;54.370;10.132;2023-04-12T03:26:44;13.45;;;5.28;;
13252;SDS011;6693;54.370;10.132;2023-04-12T03:27:49;9.98;;;3.58;;
13252;SDS011;6693;54.370;10.132;2023-04-12T03:28:50;15.77;;;5.93;;
13252;SDS011;6693;54.370;10.132;2023-04-12T03:29:53;16.55;;;6.63;;
13252;SDS011;6693;54.370;10.132;2023-04-12T03:30:53;12.70;;;5.07;;
13252;SDS011;6693;54.370;10.132;2023-04-12T03:31:57;8.52;;;4.18;;
13252;SDS011;6693;54.370;10.132;2023-04-12T03:33:01;11.95;;;6.88;;
13252;SDS011;6693;54.370;10.132;2023-04-12T03:34:04;13.57;;;5.72;;
13252;SDS011;6693;54.370;10.132;2023-04-12T03:35:06;14.05;;;5.90;;
13252;SDS011;6693;54.370;10.132;2023-04-12T03:36:10;16.17;;;6.78;;
13252;SDS011;6693;54.370;10.132;2023-04-12T03:37:13;11.23;;;4.97;;
13252;SDS011;6693;54.370;10.132;2023-04-12T03:38:14;16.80;;;7.32;;
13252;SDS011;6693;54.370;10.132;2023-04-12T03:39:17;12.00;;;4.28;;
13252;SDS011;6693;54.370;10.132;2023-04-12T03:40:17;14.82;;;5.32;;
13252;SDS011;6693;54.370;10.132;2023-04-12T03:41:21;9.90;;;5.20;;
13252;SDS011;6693;54.370;10.132;2023-04-12T03:42:22;13.52;;;6.70;;
13252;SDS011;6693;54.370;10.132;2023-04-12T03:43:26;15.00;;;6.45;;
13252;SDS011;6693;54.370;10.132;2023-04-12T03:44:27;16.02;;;5.90;;
13252;SDS011;6693;54.370;10.132;2023-04-12T03:45:31;11.13;;;5.40;;
13252;SDS011;6693;54.370;10.132;2023-04-12T03:46:32;15.68;;;6.15;;
13252;SDS011;6693;54.370;10.132;2023-04-12T03:47:35;10.23;;;5.43;;
13252;SDS011;6693;54.370;10.132;2023-04-12T03:48:38;13.80;;;5.85;;
13252;SDS011;6693;54.370;10.132;2023-04-12T03:49:42;14.85;;;6.38;;
13252;SDS011;6693;54.370;10.132;2023-04-12T03:50:42;12.90;;;5.20;;
13252;SDS011;6693;54.370;10.132;2023-04-12T03:51:47;15.52;;;6.30;;
13252;SDS011;6693;54.370;10.132;2023-04-12T03:52:49;13.57;;;4.60;;
13252;SDS011;6693;54.370;10.132;2023-04-12T03:53:53;18.52;;;7.47;;
13252;SDS011;6693;54.370;10.132;2023-04-12T03:54:53;15.43;;;7.20;;
13252;SDS011;6693;54.370;10.132;2023-04-12T03:55:56;14.23;;;8.85;;
13252;SDS011;6693;54.370;10.132;2023-04-12T03:56:57;13.02;;;5.30;;
13252;SDS011;6693;54.370;10.132;2023-04-12T03:58:01;12.02;;;5.90;;
13252;SDS011;6693;54.370;10.132;2023-04-12T03:59:01;9.68;;;3.88;;
13252;SDS011;6693;54.370;10.132;2023-04-12T04:00:05;11.98;;;4.97;;
13252;SDS011;6693;54.370;10.132;2023-04-12T04:01:07;14.25;;;5.45;;
13252;SDS011;6693;54.370;10.132;2023-04-12T04:02:12;11.95;;;5.50;;
13252;SDS011;6693;54.370;10.132;2023-04-12T04:03:13;8.32;;;4.35;;
13252;SDS011;6693;54.370;10.132;2023-04-12T04:04:19;11.32;;;3.70;;
13252;SDS011;6693;54.370;10.132;2023-04-12T04:05:20;9.95;;;4.20;;
13252;SDS011;6693;54.370;10.132;2023-04-12T04:06:23;9.68;;;4.30;;
13252;SDS011;6693;54.370;10.132;2023-04-12T04:07:24;13.38;;;5.38;;
13252;SDS011;6693;54.370;10.132;2023-04-12T04:08:28;8.88;;;5.15;;
13252;SDS011;6693;54.370;10.132;2023-04-12T04:09:29;9.13;;;3.30;;
13252;SDS011;6693;54.370;10.132;2023-04-12T04:10:32;8.73;;;4.60;;
13252;SDS011;6693;54.370;10.132;2023-04-12T04:11:33;10.60;;;3.10;;
13252;SDS011;6693;54.370;10.132;2023-04-12T04:12:37;9.52;;;4.22;;
13252;SDS011;6693;54.370;10.132;2023-04-12T04:13:37;10.00;;;3.63;;
13252;SDS011;6693;54.370;10.132;2023-04-12T04:14:41;9.95;;;4.45;;
13252;SDS011;6693;54.370;10.132;2023-04-12T04:15:41;8.63;;;4.07;;
13252;SDS011;6693;54.370;10.132;2023-04-12T04:16:45;7.85;;;3.50;;
13252;SDS011;6693;54.370;10.132;2023-04-12T04:17:45;11.10;;;3.90;;
13252;SDS011;6693;54.370;10.132;2023-04-12T04:18:49;9.70;;;3.97;;
13252;SDS011;6693;54.370;10.132;2023-04-12T04:19:52;8.73;;;4.72;;
13252;SDS011;6693;54.370;10.132;2023-04-12T04:20:55;13.40;;;4.43;;
13252;SDS011;6693;54.370;10.132;2023-04-12T04:21:56;9.60;;;4.50;;
13252;SDS011;6693;54.370;10.132;2023-04-12T04:23:02;7.82;;;3.80;;
13252;SDS011;6693;54.370;10.132;2023-04-12T04:24:03;13.43;;;5.63;;
13252;SDS011;6693;54.370;10.132;2023-04-12T04:25:09;11.25;;;4.32;;
13252;SDS011;6693;54.370;10.132;2023-04-12T04:26:10;9.50;;;4.18;;
13252;SDS011;6693;54.370;10.132;2023-04-12T04:27:14;10.50;;;5.00;;
13252;SDS011;6693;54.370;10.132;2023-04-12T04:28:16;8.65;;;3.92;;
13252;SDS011;6693;54.370;10.132;2023-04-12T04:29:19;11.13;;;4.65;;
13252;SDS011;6693;54.370;10.132;2023-04-12T04:30:20;8.25;;;3.90;;
13252;SDS011;6693;54.370;10.132;2023-04-12T04:31:23;8.25;;;3.22;;
13252;SDS011;6693;54.370;10.132;2023-04-12T04:32:25;10.13;;;3.67;;
13252;SDS011;6693;54.370;10.132;2023-04-12T04:33:28;8.82;;;3.85;;
13252;SDS011;6693;54.370;10.132;2023-04-12T04:34:30;10.23;;;4.20;;
13252;SDS011;6693;54.370;10.132;2023-04-12T04:35:36;8.70;;;3.10;;
13252;SDS011;6693;54.370;10.132;2023-04-12T04:36:39;8.80;;;3.80;;
13252;SDS011;6693;54.370;10.132;2023-04-12T04:37:43;11.25;;;3.63;;
13252;SDS011;6693;54.370;10.132;2023-04-12T04:38:43;12.90;;;4.72;;
13252;SDS011;6693;54.370;10.132;2023-04-12T04:39:47;8.82;;;3.13;;
13252;SDS011;6693;54.370;10.132;2023-04-12T04:40:49;10.95;;;4.72;;
13252;SDS011;6693;54.370;10.132;2023-04-12T04:41:52;11.68;;;4.80;;
13252;SDS011;6693;54.370;10.132;2023-04-12T04:42:53;11.95;;;4.95;;
13252;SDS011;6693;54.370;10.132;2023-04-12T04:43:56;10.88;;;3.70;;
13252;SDS011;6693;54.370;10.132;2023-04-12T04:44:59;9.20;;;4.28;;
13252;SDS011;6693;54.370;10.132;2023-04-12T04:46:11;10.30;;;4.38;;
13252;SDS011;6693;54.370;10.132;2023-04-12T04:47:12;10.23;;;3.33;;
13252;SDS011;6693;54.370;10.132;2023-04-12T04:48:15;8.52;;;3.50;;
13252;SDS011;6693;54.370;10.132;2023-04-12T04:50:21;7.35;;;3.65;;
13252;SDS011;6693;54.370;10.132;2023-04-12T04:51:24;11.82;;;4.20;;
13252;SDS011;6693;54.370;10.132;2023-04-12T04:52:28;11.13;;;3.30;;
13252;SDS011;6693;54.370;10.132;2023-04-12T04:53:28;10.27;;;3.92;;
13252;SDS011;6693;54.370;10.132;2023-04-12T04:54:31;9.55;;;3.60;;
13252;SDS011;6693;54.370;10.132;2023-04-12T04:55:32;9.75;;;3.63;;
13252;SDS011;6693;54.370;10.132;2023-04-12T04:56:35;6.97;;;2.58;;
13252;SDS011;6693;54.370;10.132;2023-04-12T04:57:36;9.80;;;3.95;;
13252;SDS011;6693;54.370;10.132;2023-04-12T04:58:39;6.82;;;3.00;;
13252;SDS011;6693;54.370;10.132;2023-04-12T04:59:42;7.57;;;3.25;;
13252;SDS011;6693;54.370;10.132;2023-04-12T05:00:43;7.40;;;3.40;;
13252;SDS011;6693;54.370;10.132;2023-04-12T05:01:47;7.50;;;2.47;;
13252;SDS011;6693;54.370;10.132;2023-04-12T05:02:48;6.18;;;2.78;;
13252;SDS011;6693;54.370;10.132;2023-04-12T05:03:51;6.57;;;2.83;;
13252;SDS011;6693;54.370;10.132;2023-04-12T05:04:54;8.52;;;3.65;;
13252;SDS011;6693;54.370;10.132;2023-04-12T05:05:59;6.90;;;3.28;;
13252;SDS011;6693;54.370;10.132;2023-04-12T05:07:03;8.35;;;3.20;;
13252;SDS011;6693;54.370;10.132;2023-04-12T05:08:06;10.40;;;2.72;;
13252;SDS011;6693;54.370;10.132;2023-04-12T05:09:07;7.78;;;3.15;;
13252;SDS011;6693;54.370;10.132;2023-04-12T05:10:10;8.93;;;3.30;;
13252;SDS011;6693;54.370;10.132;2023-04-12T05:11:11;9.45;;;2.85;;
13252;SDS011;6693;54.370;10.132;2023-04-12T05:12:14;8.20;;;2.63;;
13252;SDS011;6693;54.370;10.132;2023-04-12T05:13:15;6.82;;;3.00;;
13252;SDS011;6693;54.370;10.132;2023-04-12T05:14:18;9.27;;;3.40;;
13252;SDS011;6693;54.370;10.132;2023-04-12T05:15:19;8.07;;;3.55;;
13252;SDS011;6693;54.370;10.132;2023-04-12T05:16:22;8.77;;;3.10;;
13252;SDS011;6693;54.370;10.132;2023-04-12T05:17:25;8.95;;;2.35;;
13252;SDS011;6693;54.370;10.132;2023-04-12T05:18:26;9.32;;;3.25;;
13252;SDS011;6693;54.370;10.132;2023-04-12T05:19:32;6.70;;;2.72;;
13252;SDS011;6693;54.370;10.132;2023-04-12T05:20:33;11.07;;;2.60;;
13252;SDS011;6693;54.370;10.132;2023-04-12T05:21:37;8.02;;;3.10;;
13252;SDS011;6693;54.370;10.132;2023-04-12T05:22:43;9.27;;;2.95;;
13252;SDS011;6693;54.370;10.132;2023-04-12T05:23:44;9.05;;;2.88;;
13252;SDS011;6693;54.370;10.132;2023-04-12T05:24:48;6.00;;;2.65;;
13252;SDS011;6693;54.370;10.132;2023-04-12T05:25:49;9.85;;;3.50;;
13252;SDS011;6693;54.370;10.132;2023-04-12T05:26:53;8.80;;;3.45;;
13252;SDS011;6693;54.370;10.132;2023-04-12T05:27:56;6.35;;;2.25;;
13252;SDS011;6693;54.370;10.132;2023-04-12T05:28:59;7.43;;;3.28;;
13252;SDS011;6693;54.370;10.132;2023-04-12T05:30:00;8.38;;;3.00;;
13252;SDS011;6693;54.370;10.132;2023-04-12T05:31:04;8.48;;;2.50;;
13252;SDS011;6693;54.370;10.132;2023-04-12T05:32:05;9.85;;;2.97;;
13252;SDS011;6693;54.370;10.132;2023-04-12T05:33:09;6.00;;;2.78;;
13252;SDS011;6693;54.370;10.132;2023-04-12T05:34:15;5.57;;;1.30;;
13252;SDS011;6693;54.370;10.132;2023-04-12T05:35:16;9.40;;;3.35;;
13252;SDS011;6693;54.370;10.132;2023-04-12T05:36:19;7.20;;;2.55;;
13252;SDS011;6693;54.370;10.132;2023-04-12T05:37:23;8.30;;;2.45;;
13252;SDS011;6693;54.370;10.132;2023-04-12T05:38:29;7.40;;;2.85;;
13252;SDS011;6693;54.370;10.132;2023-04-12T05:39:32;7.10;;;2.17;;
13252;SDS011;6693;54.370;10.132;2023-04-12T05:40:33;7.32;;;2.30;;
13252;SDS011;6693;54.370;10.132;2023-04-12T05:41:36;6.45;;;2.75;;
13252;SDS011;6693;54.370;10.132;2023-04-12T05:42:37;6.35;;;2.47;;
13252;SDS011;6693;54.370;10.132;2023-04-12T05:43:40;6.38;;;2.78;;
13252;SDS011;6693;54.370;10.132;2023-04-12T05:44:41;7.07;;;2.75;;
13252;SDS011;6693;54.370;10.132;2023-04-12T05:45:48;5.18;;;2.33;;
13252;SDS011;6693;54.370;10.132;2023-04-12T05:46:52;7.05;;;2.60;;
13252;SDS011;6693;54.370;10.132;2023-04-12T05:47:52;9.88;;;2.70;;
13252;SDS011;6693;54.370;10.132;2023-04-12T05:48:56;6.82;;;2.55;;
13252;SDS011;6693;54.370;10.132;2023-04-12T05:49:57;6.80;;;2.42;;
13252;SDS011;6693;54.370;10.132;2023-04-12T05:51:01;6.63;;;2.92;;
13252;SDS011;6693;54.370;10.132;2023-04-12T05:52:02;7.63;;;3.08;;
13252;SDS011;6693;54.370;10.132;2023-04-12T05:53:05;4.18;;;2.08;;
13252;SDS011;6693;54.370;10.132;2023-04-12T05:54:08;7.10;;;2.70;;
13252;SDS011;6693;54.370;10.132;2023-04-12T05:55:12;7.18;;;3.63;;
13252;SDS011;6693;54.370;10.132;2023-04-12T05:56:12;6.15;;;2.42;;
13252;SDS011;6693;54.370;10.132;2023-04-12T05:57:15;4.03;;;1.23;;
13252;SDS011;6693;54.370;10.132;2023-04-12T05:58:16;7.55;;;1.95;;
13252;SDS011;6693;54.370;10.132;2023-04-12T05:59:20;9.43;;;2.58;;
13252;SDS011;6693;54.370;10.132;2023-04-12T06:00:21;7.78;;;2.65;;
13252;SDS011;6693;54.370;10.132;2023-04-12T06:01:25;6.50;;;2.50;;
13252;SDS011;6693;54.370;10.132;2023-04-12T06:02:30;8.20;;;2.72;;
13252;SDS011;6693;54.370;10.132;2023-04-12T06:03:33;6.82;;;2.60;;
13252;SDS011;6693;54.370;10.132;2023-04-12T06:04:34;8.60;;;2.53;;
13252;SDS011;6693;54.370;10.132;2023-04-12T06:05:37;5.38;;;2.05;;
13252;SDS011;6693;54.370;10.132;2023-04-12T06:06:38;5.22;;;2.45;;
13252;SDS011;6693;54.370;10.132;2023-04-12T06:07:42;8.60;;;3.08;;
13252;SDS011;6693;54.370;10.132;2023-04-12T06:08:45;4.88;;;2.38;;
13252;SDS011;6693;54.370;10.132;2023-04-12T06:09:51;5.22;;;2.45;;
13252;SDS011;6693;54.370;10.132;2023-04-12T06:10:52;5.60;;;1.73;;
13252;SDS011;6693;54.370;10.132;2023-04-12T06:11:55;6.45;;;2.10;;
13252;SDS011;6693;54.370;10.132;2023-04-12T06:12:56;6.60;;;2.08;;
13252;SDS011;6693;54.370;10.132;2023-04-12T06:13:59;7.60;;;2.30;;
13252;SDS011;6693;54.370;10.132;2023-04-12T06:15:00;7.43;;;2.67;;
13252;SDS011;6693;54.370;10.132;2023-04-12T06:16:04;6.30;;;2.13;;
13252;SDS011;6693;54.370;10.132;2023-04-12T06:17:07;7.78;;;2.30;;
13252;SDS011;6693;54.370;10.132;2023-04-12T06:18:08;7.90;;;2.55;;
13252;SDS011;6693;54.370;10.132;2023-04-12T06:19:12;7.38;;;2.33;;
13252;SDS011;6693;54.370;10.132;2023-04-12T06:20:12;6.43;;;1.80;;